createdAt,value
2023-03-22T00:00:50.994Z,88.80
2023-03-22T00:03:17.982Z,89.20
2023-03-22T00:05:45.393Z,89.10
2023-03-22T00:08:13.583Z,88.70
2023-03-22T00:10:41.991Z,88.70
2023-03-22T00:13:10.203Z,88.80
2023-03-22T00:15:37.400Z,88.90
2023-03-22T00:18:05.723Z,89.00
2023-03-22T00:20:37.571Z,88.90
2023-03-22T00:23:05.065Z,89.30
2023-03-22T00:25:31.866Z,89.30
2023-03-22T00:27:58.604Z,89.60
2023-03-22T00:30:25.324Z,89.50
2023-03-22T00:32:52.079Z,89.50
2023-03-22T00:35:18.899Z,89.60
2023-03-22T00:37:45.666Z,89.50
2023-03-22T00:40:13.949Z,89.50
2023-03-22T00:42:41.477Z,89.30
2023-03-22T00:45:10.491Z,89.20
2023-03-22T00:47:37.738Z,89.00
2023-03-22T00:50:05.837Z,88.80
2023-03-22T00:52:33.026Z,88.80
2023-03-22T00:54:59.854Z,89.10
2023-03-22T00:57:26.586Z,88.80
2023-03-22T00:59:53.907Z,89.10
2023-03-22T01:02:20.663Z,89.20
2023-03-22T01:04:48.115Z,88.80
2023-03-22T01:07:21.507Z,89.00
2023-03-22T01:09:48.468Z,89.50
2023-03-22T01:12:16.023Z,89.80
2023-03-22T01:14:43.466Z,90.00
2023-03-22T01:17:10.954Z,90.20
2023-03-22T01:19:38.197Z,89.90
2023-03-22T01:22:06.509Z,90.00
2023-03-22T01:24:33.450Z,89.50
2023-03-22T01:27:00.356Z,89.10
2023-03-22T01:29:27.136Z,89.10
2023-03-22T01:31:53.962Z,89.10
2023-03-22T01:34:20.772Z,89.30
2023-03-22T01:36:47.663Z,89.50
2023-03-22T01:39:15.066Z,89.60
2023-03-22T01:41:42.214Z,89.80
2023-03-22T01:44:13.365Z,89.80
2023-03-22T01:46:42.198Z,89.90
2023-03-22T01:49:16.981Z,89.80
2023-03-22T01:51:46.313Z,89.70
2023-03-22T01:54:18.532Z,89.80
2023-03-22T01:56:45.952Z,89.70
2023-03-22T01:59:14.904Z,89.30
2023-03-22T02:01:41.709Z,89.40
2023-03-22T02:04:19.920Z,89.50
2023-03-22T02:06:47.827Z,90.20
2023-03-22T02:09:21.936Z,90.20
2023-03-22T02:12:12.262Z,90.90
2023-03-22T02:14:41.854Z,90.90
2023-03-22T02:17:29.725Z,91.20
2023-03-22T02:20:11.588Z,91.00
2023-03-22T02:22:58.964Z,91.20
2023-03-22T02:25:47.058Z,91.20
2023-03-22T02:28:20.489Z,91.00
2023-03-22T02:30:59.478Z,90.70
2023-03-22T02:33:35.785Z,90.70
2023-03-22T02:36:43.201Z,90.60
2023-03-22T02:39:14.107Z,90.60
2023-03-22T02:41:55.967Z,90.60
2023-03-22T02:44:30.400Z,90.80
2023-03-22T02:47:10.576Z,90.50
2023-03-22T02:49:49.751Z,90.40
2023-03-22T02:52:32.331Z,90.20
2023-03-22T02:55:20.440Z,90.20
2023-03-22T02:58:03.514Z,91.30
2023-03-22T03:00:32.288Z,91.00
2023-03-22T03:03:11.135Z,91.10
2023-03-22T03:05:41.581Z,90.90
2023-03-22T03:08:10.873Z,90.80
2023-03-22T03:10:40.336Z,90.90
2023-03-22T03:13:12.675Z,90.90
2023-03-22T03:15:45.142Z,90.80
2023-03-22T03:18:35.561Z,90.80
2023-03-22T03:21:30.211Z,90.50
2023-03-22T03:24:15.718Z,90.60
2023-03-22T03:27:02.617Z,90.60
2023-03-22T03:29:55.314Z,90.40
2023-03-22T03:32:31.424Z,90.40
2023-03-22T03:35:07.500Z,90.60
2023-03-22T03:37:48.946Z,90.50
2023-03-22T03:40:21.963Z,90.80
2023-03-22T03:42:52.649Z,89.70
2023-03-22T03:45:22.045Z,89.70
2023-03-22T03:47:56.798Z,89.70
2023-03-22T03:50:25.452Z,89.90
2023-03-22T03:52:54.054Z,90.30
2023-03-22T03:55:22.487Z,91.00
2023-03-22T03:57:49.443Z,91.50
2023-03-22T04:00:17.257Z,91.80
2023-03-22T04:02:44.881Z,91.50
2023-03-22T04:05:12.519Z,91.40
2023-03-22T04:07:39.401Z,91.00
2023-03-22T04:10:06.782Z,91.10
2023-03-22T04:12:33.900Z,91.10
2023-03-22T04:15:00.657Z,90.90
2023-03-22T04:17:29.180Z,91.00
2023-03-22T04:19:56.526Z,91.10
2023-03-22T04:22:24.012Z,91.10
2023-03-22T04:24:50.963Z,91.70
2023-03-22T04:27:18.630Z,91.50
2023-03-22T04:29:48.261Z,91.00
2023-03-22T04:32:22.913Z,91.40
2023-03-22T04:34:51.053Z,91.30
2023-03-22T04:37:19.072Z,90.80
2023-03-22T04:39:46.215Z,91.00
2023-03-22T04:42:12.948Z,91.20
2023-03-22T04:44:39.669Z,91.10
2023-03-22T04:47:06.364Z,91.10
2023-03-22T04:49:33.427Z,91.10
2023-03-22T04:52:00.296Z,91.10
2023-03-22T04:54:26.997Z,91.10
2023-03-22T04:56:53.694Z,91.10
2023-03-22T04:59:20.672Z,91.10
2023-03-22T05:01:48.174Z,91.00
2023-03-22T05:04:15.890Z,90.90
2023-03-22T05:06:42.746Z,90.60
2023-03-22T05:09:10.220Z,90.90
2023-03-22T05:11:37.115Z,91.10
2023-03-22T05:14:04.468Z,91.20
2023-03-22T05:16:31.408Z,91.10
2023-03-22T05:18:58.446Z,91.00
2023-03-22T05:21:28.517Z,91.50
2023-03-22T05:23:57.646Z,91.80
2023-03-22T05:26:26.357Z,92.10
2023-03-22T05:28:54.240Z,92.20
2023-03-22T05:31:22.087Z,92.20
2023-03-22T05:33:50.485Z,91.40
2023-03-22T05:36:22.764Z,91.40
2023-03-22T05:38:50.560Z,91.50
2023-03-22T05:41:17.552Z,90.90
2023-03-22T05:43:44.272Z,90.50
2023-03-22T05:46:12.350Z,90.90
2023-03-22T05:48:40.191Z,91.30
2023-03-22T05:51:13.427Z,91.30
2023-03-22T05:53:40.289Z,91.40
2023-03-22T05:56:09.885Z,91.50
2023-03-22T05:58:36.833Z,91.00
2023-03-22T06:01:12.761Z,90.30
2023-03-22T06:03:39.773Z,90.70
2023-03-22T06:06:10.476Z,90.80
2023-03-22T06:08:38.429Z,90.90
2023-03-22T06:11:05.820Z,90.70
2023-03-22T06:13:32.757Z,90.80
2023-03-22T06:16:01.302Z,91.00
2023-03-22T06:18:28.733Z,91.10
2023-03-22T06:20:55.508Z,91.30
2023-03-22T06:23:22.431Z,91.40
2023-03-22T06:25:49.156Z,91.30
2023-03-22T06:28:15.898Z,91.40
2023-03-22T06:30:42.771Z,91.50
2023-03-22T06:33:09.686Z,91.70
2023-03-22T06:35:36.444Z,91.60
2023-03-22T06:38:03.378Z,91.60
2023-03-22T06:40:30.164Z,91.00
2023-03-22T06:42:56.892Z,91.10
2023-03-22T06:45:23.798Z,91.20
2023-03-22T06:47:50.793Z,91.00
2023-03-22T06:50:17.663Z,91.10
2023-03-22T06:52:44.418Z,91.50
2023-03-22T06:55:11.221Z,91.50
2023-03-22T06:57:37.968Z,91.00
2023-03-22T07:00:05.512Z,90.60
2023-03-22T07:02:32.523Z,90.50
2023-03-22T07:04:59.330Z,90.50
2023-03-22T07:07:26.116Z,90.80
2023-03-22T07:09:54.114Z,90.50
2023-03-22T07:12:20.985Z,89.90
2023-03-22T07:14:48.071Z,90.10
2023-03-22T07:17:14.790Z,89.60
2023-03-22T07:19:42.865Z,90.00
2023-03-22T07:22:09.695Z,90.10
2023-03-22T07:24:44.621Z,89.80
2023-03-22T07:27:18.489Z,90.00
2023-03-22T07:29:45.376Z,89.30
2023-03-22T07:32:12.436Z,89.10
2023-03-22T07:34:39.223Z,89.10
2023-03-22T07:37:08.344Z,88.40
2023-03-22T07:39:35.150Z,87.90
2023-03-22T07:42:02.041Z,87.80
2023-03-22T07:44:28.986Z,87.70
2023-03-22T07:46:56.213Z,88.10
2023-03-22T07:49:23.385Z,87.90
2023-03-22T07:51:51.164Z,87.60
2023-03-22T07:54:32.251Z,86.90
2023-03-22T07:57:01.257Z,85.50
2023-03-22T07:59:28.696Z,84.80
2023-03-22T08:01:55.835Z,82.70
2023-03-22T08:04:23.040Z,83.10
2023-03-22T08:06:49.914Z,82.40
2023-03-22T08:09:17.281Z,81.70
2023-03-22T08:11:44.127Z,80.40
2023-03-22T08:14:11.121Z,81.50
2023-03-22T08:16:38.475Z,81.10
2023-03-22T08:19:05.937Z,80.10
2023-03-22T08:21:33.704Z,80.60
2023-03-22T08:24:01.502Z,79.30
2023-03-22T08:26:28.729Z,80.40
2023-03-22T08:28:56.211Z,78.60
2023-03-22T08:31:23.390Z,76.20
2023-03-22T08:33:50.685Z,77.00
2023-03-22T08:36:21.579Z,77.30
2023-03-22T08:38:48.873Z,75.00
2023-03-22T08:41:18.728Z,75.80
2023-03-22T08:43:45.670Z,73.90
2023-03-22T08:46:12.424Z,74.80
2023-03-22T08:48:41.544Z,78.10
2023-03-22T08:51:08.862Z,74.50
2023-03-22T08:53:36.465Z,74.90
2023-03-22T08:56:04.006Z,72.00
2023-03-22T08:58:30.918Z,75.00
2023-03-22T09:00:58.321Z,73.60
2023-03-22T09:03:25.774Z,72.60
2023-03-22T09:05:52.772Z,70.90
2023-03-22T09:08:20.481Z,70.40
2023-03-22T09:10:51.286Z,70.90
2023-03-22T09:13:19.652Z,69.30
2023-03-22T09:15:47.564Z,70.00
2023-03-22T09:18:16.255Z,69.00
2023-03-22T09:20:45.728Z,70.90
2023-03-22T09:23:15.406Z,68.40
2023-03-22T09:25:46.977Z,68.10
2023-03-22T09:28:15.305Z,73.30
2023-03-22T09:30:42.380Z,69.00
2023-03-22T09:33:09.472Z,65.40
2023-03-22T09:35:41.765Z,67.80
2023-03-22T09:38:10.135Z,67.80
2023-03-22T09:40:43.122Z,68.10
2023-03-22T09:43:12.614Z,68.40
2023-03-22T09:45:48.102Z,67.50
2023-03-22T09:48:27.586Z,65.40
2023-03-22T09:50:55.622Z,64.50
2023-03-22T09:53:24.809Z,65.60
2023-03-22T09:56:08.769Z,64.00
2023-03-22T09:58:55.373Z,64.80
2023-03-22T10:01:31.641Z,64.40
2023-03-22T10:04:17.482Z,64.50
2023-03-22T10:06:50.562Z,61.60
2023-03-22T10:09:26.721Z,59.20
2023-03-22T10:12:25.858Z,63.20
2023-03-22T10:15:28.347Z,62.30
2023-03-22T10:17:57.624Z,57.10
2023-03-22T10:20:39.952Z,59.60
2023-03-22T10:23:13.204Z,59.90
2023-03-22T10:25:42.139Z,58.50
2023-03-22T10:28:22.133Z,61.00
2023-03-22T10:30:57.181Z,59.50
2023-03-22T10:33:31.074Z,59.90
2023-03-22T10:35:57.813Z,59.70
2023-03-22T10:38:27.559Z,61.20
2023-03-22T10:40:58.311Z,60.10
2023-03-22T10:43:37.771Z,58.20
2023-03-22T10:46:07.671Z,58.80
2023-03-22T10:48:41.829Z,61.70
2023-03-22T10:51:17.977Z,60.30
2023-03-22T10:53:50.113Z,60.90
2023-03-22T10:56:20.058Z,61.30
2023-03-22T10:58:49.172Z,58.90
2023-03-22T11:01:28.480Z,59.90
2023-03-22T11:03:59.028Z,58.80
2023-03-22T11:06:29.965Z,60.30
2023-03-22T11:09:21.701Z,56.40
2023-03-22T11:11:53.400Z,59.20
2023-03-22T11:14:37.234Z,59.80
2023-03-22T11:17:06.780Z,60.00
2023-03-22T11:19:40.214Z,60.10
2023-03-22T11:22:36.434Z,58.80
2023-03-22T11:25:06.953Z,61.80
2023-03-22T11:27:34.549Z,58.50
2023-03-22T11:30:28.912Z,60.90
2023-03-22T11:33:07.874Z,57.40
2023-03-22T11:35:38.182Z,55.70
2023-03-22T11:38:05.739Z,55.70
2023-03-22T11:40:36.110Z,53.80
2023-03-22T11:43:23.153Z,54.40
2023-03-22T11:45:56.782Z,57.90
2023-03-22T11:48:30.508Z,58.10
2023-03-22T11:51:15.381Z,53.40
2023-03-22T11:53:48.577Z,52.80
2023-03-22T11:56:21.956Z,52.70
2023-03-22T11:59:02.200Z,51.50
2023-03-22T12:02:03.911Z,51.60
2023-03-22T12:04:36.072Z,49.90
2023-03-22T12:07:10.718Z,50.00
2023-03-22T12:09:52.893Z,51.00
2023-03-22T12:12:24.459Z,51.30
2023-03-22T12:14:57.850Z,51.90
2023-03-22T12:17:36.459Z,50.50
2023-03-22T12:20:22.219Z,47.40
2023-03-22T12:22:55.005Z,49.00
2023-03-22T12:25:28.887Z,51.80
2023-03-22T12:28:06.988Z,47.60
2023-03-22T12:30:51.173Z,45.60
2023-03-22T12:33:46.522Z,46.10
2023-03-22T12:36:27.474Z,47.30
2023-03-22T12:38:57.261Z,46.40
2023-03-22T12:41:43.688Z,42.80
2023-03-22T12:44:19.423Z,45.00
2023-03-22T12:46:53.208Z,44.10
2023-03-22T12:49:46.040Z,41.30
2023-03-22T12:52:19.128Z,40.70
2023-03-22T12:54:48.410Z,42.20
2023-03-22T12:57:16.999Z,40.70
2023-03-22T12:59:47.516Z,45.10
2023-03-22T13:02:25.386Z,42.20
2023-03-22T13:05:00.800Z,41.60
2023-03-22T13:07:28.878Z,40.70
2023-03-22T13:09:55.864Z,43.10
2023-03-22T13:12:22.948Z,42.20
2023-03-22T13:14:57.704Z,40.30
2023-03-22T13:17:24.843Z,42.60
2023-03-22T13:20:14.800Z,40.80
2023-03-22T13:22:41.692Z,39.20
2023-03-22T13:25:12.936Z,42.20
2023-03-22T13:28:05.096Z,38.70
2023-03-22T13:30:54.089Z,38.80
2023-03-22T13:33:25.435Z,39.70
2023-03-22T13:35:58.920Z,39.60
2023-03-22T13:38:26.284Z,37.80
2023-03-22T13:41:28.715Z,37.30
2023-03-22T13:43:58.578Z,39.70
2023-03-22T13:46:25.416Z,35.60
2023-03-22T13:48:58.463Z,36.00
2023-03-22T13:51:32.631Z,38.60
2023-03-22T13:54:18.193Z,36.30
2023-03-22T13:56:54.087Z,36.60
2023-03-22T13:59:29.934Z,34.50
2023-03-22T14:02:08.693Z,35.30
2023-03-22T14:04:44.834Z,37.60
2023-03-22T14:07:31.378Z,39.70
2023-03-22T14:10:06.618Z,40.90
2023-03-22T14:12:56.917Z,40.00
2023-03-22T14:15:27.170Z,39.10
2023-03-22T14:18:21.340Z,39.00
2023-03-22T14:20:52.963Z,40.30
